KGKJ

Port Meadville Airport

Meadville, Pennsylvania, USA
METAR KGKJ 191953Z AUTO 19011G17KT 10SM CLR 12/01 A3000 RMK AO2 SLP165 T01170011
Observed Flight Rules
Oct-19 @ 19:53 UTC (44 minutes ago) Visual Flight Rules
Wind Visibility Clouds
190° at 11 knots
 Gusting to 17 knots
10 miles
  • Clear skies
Temperatures Readings
Current 12°C / 54°F
Dewpoint 1°C / 34°F
Humidity 47%
Altimeter 30" Hg
Pressure 1016.5 hPa
Elevation 428
METAR KGKJ 191953Z AUTO 19011G17KT 10SM CLR 12/01 A3000 RMK AO2 SLP165 T01170011
Observed Flight Rules
Oct-19 @ 19:53 UTC
(44 minutes ago)
VFR
Wind Visibility
190° at 11 knots
 Gusting to 17 knots
10 miles
Clouds
  • Clear skies
Temperature Dewpoint
12°C / 54°F 1°C / 34°F
Humidity Altimeter Pressure
47% 30" Hg 1016.5 hPa